Amboy, Washington
Current Conditions -  °F | °C
As of 1:53 PM on Monday 20 Oct 2014 (Local Time) from KSPB Reporting Station
Scattered Clouds Scattered Clouds  
Wind Chill: 63°   Ceiling: Unl
Heat Index: 63°   Visibility: 10mi
Dew Point: 55°   Wind: 10mph
Humidity: 75%   Direction: 160°SSE
Pressure: 29.78"   Gusts: NA
Location:  45.91°N, 122.45°W
Report Text: KSPB 202053Z AUTO 16009KT 10SM FEW019 SCT090 SCT120 17/13 A2978 RMK AO2 SLP082 60000 T01720128 58001
Loading
Personal Weather Stations






























Interactive Weather Map
Tropical Storm Tracking
New forecast layout! Learn more

10-Day Weather Forecast

Advertisements
Track Severe Weather on mobile